sensor_id;sensor_type;location;lat;lon;timestamp;P1;durP1;ratioP1;P2;durP2;ratioP2
37657;SDS011;23500;53.268;8.308;2023-03-05T00:00:14;2.92;;;1.60;;
37657;SDS011;23500;53.268;8.308;2023-03-05T00:02:40;3.85;;;1.50;;
37657;SDS011;23500;53.268;8.308;2023-03-05T00:05:07;3.30;;;1.30;;
37657;SDS011;23500;53.268;8.308;2023-03-05T00:07:33;2.88;;;1.65;;
37657;SDS011;23500;53.268;8.308;2023-03-05T00:09:59;2.92;;;1.42;;
37657;SDS011;23500;53.268;8.308;2023-03-05T00:12:26;3.15;;;1.73;;
37657;SDS011;23500;53.268;8.308;2023-03-05T00:14:52;3.25;;;1.83;;
37657;SDS011;23500;53.268;8.308;2023-03-05T00:17:18;3.67;;;1.58;;
37657;SDS011;23500;53.268;8.308;2023-03-05T00:19:44;2.67;;;1.40;;
37657;SDS011;23500;53.268;8.308;2023-03-05T00:22:09;3.45;;;1.50;;
37657;SDS011;23500;53.268;8.308;2023-03-05T00:24:35;2.40;;;1.23;;
37657;SDS011;23500;53.268;8.308;2023-03-05T00:27:00;2.40;;;1.42;;
37657;SDS011;23500;53.268;8.308;2023-03-05T00:29:26;3.10;;;1.40;;
37657;SDS011;23500;53.268;8.308;2023-03-05T00:31:52;2.50;;;1.30;;
37657;SDS011;23500;53.268;8.308;2023-03-05T00:34:19;3.05;;;1.50;;
37657;SDS011;23500;53.268;8.308;2023-03-05T00:36:45;2.25;;;1.30;;
37657;SDS011;23500;53.268;8.308;2023-03-05T00:39:15;2.60;;;1.40;;
37657;SDS011;23500;53.268;8.308;2023-03-05T00:41:43;2.40;;;1.40;;
37657;SDS011;23500;53.268;8.308;2023-03-05T00:44:09;2.20;;;1.52;;
37657;SDS011;23500;53.268;8.308;2023-03-05T00:46:35;2.47;;;1.50;;
37657;SDS011;23500;53.268;8.308;2023-03-05T00:49:01;3.20;;;1.55;;
37657;SDS011;23500;53.268;8.308;2023-03-05T00:51:27;3.67;;;1.65;;
37657;SDS011;23500;53.268;8.308;2023-03-05T00:53:53;1.65;;;1.27;;
37657;SDS011;23500;53.268;8.308;2023-03-05T00:56:19;2.28;;;1.17;;
37657;SDS011;23500;53.268;8.308;2023-03-05T00:58:45;2.45;;;1.40;;
37657;SDS011;23500;53.268;8.308;2023-03-05T01:01:10;2.72;;;1.40;;
37657;SDS011;23500;53.268;8.308;2023-03-05T01:03:37;1.55;;;1.30;;
37657;SDS011;23500;53.268;8.308;2023-03-05T01:06:03;1.65;;;1.30;;
37657;SDS011;23500;53.268;8.308;2023-03-05T01:08:31;2.55;;;1.38;;
37657;SDS011;23500;53.268;8.308;2023-03-05T01:10:57;3.53;;;1.42;;
37657;SDS011;23500;53.268;8.308;2023-03-05T01:13:22;3.92;;;1.48;;
37657;SDS011;23500;53.268;8.308;2023-03-05T01:15:48;2.60;;;1.50;;
37657;SDS011;23500;53.268;8.308;2023-03-05T01:18:15;1.63;;;1.40;;
37657;SDS011;23500;53.268;8.308;2023-03-05T01:20:40;1.77;;;1.35;;
37657;SDS011;23500;53.268;8.308;2023-03-05T01:23:06;2.35;;;1.42;;
37657;SDS011;23500;53.268;8.308;2023-03-05T01:25:32;2.55;;;1.23;;
37657;SDS011;23500;53.268;8.308;2023-03-05T01:27:57;2.75;;;1.38;;
37657;SDS011;23500;53.268;8.308;2023-03-05T01:30:23;2.92;;;1.42;;
37657;SDS011;23500;53.268;8.308;2023-03-05T01:32:49;1.60;;;1.27;;
37657;SDS011;23500;53.268;8.308;2023-03-05T01:35:18;2.70;;;1.10;;
37657;SDS011;23500;53.268;8.308;2023-03-05T01:37:45;1.70;;;1.30;;
37657;SDS011;23500;53.268;8.308;2023-03-05T01:40:12;2.25;;;1.20;;
37657;SDS011;23500;53.268;8.308;2023-03-05T01:42:47;2.00;;;1.38;;
37657;SDS011;23500;53.268;8.308;2023-03-05T01:45:17;2.53;;;1.52;;
37657;SDS011;23500;53.268;8.308;2023-03-05T01:47:43;3.33;;;1.20;;
37657;SDS011;23500;53.268;8.308;2023-03-05T01:50:09;2.78;;;1.10;;
37657;SDS011;23500;53.268;8.308;2023-03-05T01:52:39;2.28;;;1.30;;
37657;SDS011;23500;53.268;8.308;2023-03-05T01:55:08;2.35;;;1.20;;
37657;SDS011;23500;53.268;8.308;2023-03-05T01:57:40;1.42;;;1.00;;
37657;SDS011;23500;53.268;8.308;2023-03-05T02:00:10;2.38;;;1.50;;
37657;SDS011;23500;53.268;8.308;2023-03-05T02:03:04;1.90;;;1.20;;
37657;SDS011;23500;53.268;8.308;2023-03-05T02:05:33;1.77;;;1.27;;
37657;SDS011;23500;53.268;8.308;2023-03-05T02:08:02;1.88;;;1.40;;
37657;SDS011;23500;53.268;8.308;2023-03-05T02:10:31;3.40;;;1.10;;
37657;SDS011;23500;53.268;8.308;2023-03-05T02:13:09;1.45;;;1.10;;
37657;SDS011;23500;53.268;8.308;2023-03-05T02:15:37;1.23;;;0.95;;
37657;SDS011;23500;53.268;8.308;2023-03-05T02:18:03;1.75;;;1.10;;
37657;SDS011;23500;53.268;8.308;2023-03-05T02:20:32;1.30;;;1.08;;
37657;SDS011;23500;53.268;8.308;2023-03-05T02:23:13;2.58;;;1.13;;
37657;SDS011;23500;53.268;8.308;2023-03-05T02:25:39;1.50;;;1.15;;
37657;SDS011;23500;53.268;8.308;2023-03-05T02:28:11;2.47;;;1.33;;
37657;SDS011;23500;53.268;8.308;2023-03-05T02:30:44;1.83;;;1.02;;
37657;SDS011;23500;53.268;8.308;2023-03-05T02:33:11;1.50;;;1.20;;
37657;SDS011;23500;53.268;8.308;2023-03-05T02:35:38;2.35;;;1.20;;
37657;SDS011;23500;53.268;8.308;2023-03-05T02:38:04;2.85;;;1.13;;
37657;SDS011;23500;53.268;8.308;2023-03-05T02:40:30;3.58;;;1.33;;
37657;SDS011;23500;53.268;8.308;2023-03-05T02:42:55;1.65;;;0.98;;
37657;SDS011;23500;53.268;8.308;2023-03-05T02:45:21;2.08;;;1.27;;
37657;SDS011;23500;53.268;8.308;2023-03-05T02:47:47;1.33;;;1.15;;
37657;SDS011;23500;53.268;8.308;2023-03-05T02:50:12;3.90;;;1.17;;
37657;SDS011;23500;53.268;8.308;2023-03-05T02:52:38;1.83;;;1.00;;
37657;SDS011;23500;53.268;8.308;2023-03-05T02:55:04;1.70;;;1.30;;
37657;SDS011;23500;53.268;8.308;2023-03-05T02:57:30;2.00;;;1.17;;
37657;SDS011;23500;53.268;8.308;2023-03-05T02:59:56;1.67;;;0.90;;
37657;SDS011;23500;53.268;8.308;2023-03-05T03:02:22;1.05;;;0.93;;
37657;SDS011;23500;53.268;8.308;2023-03-05T03:04:47;1.23;;;0.95;;
37657;SDS011;23500;53.268;8.308;2023-03-05T03:07:13;2.25;;;0.95;;
37657;SDS011;23500;53.268;8.308;2023-03-05T03:09:40;2.22;;;1.30;;
37657;SDS011;23500;53.268;8.308;2023-03-05T03:12:09;1.42;;;1.13;;
37657;SDS011;23500;53.268;8.308;2023-03-05T03:14:36;1.73;;;1.17;;
37657;SDS011;23500;53.268;8.308;2023-03-05T03:17:05;1.67;;;1.00;;
37657;SDS011;23500;53.268;8.308;2023-03-05T03:19:32;1.63;;;1.10;;
37657;SDS011;23500;53.268;8.308;2023-03-05T03:21:59;2.40;;;1.02;;
37657;SDS011;23500;53.268;8.308;2023-03-05T03:24:25;2.35;;;1.13;;
37657;SDS011;23500;53.268;8.308;2023-03-05T03:26:51;1.25;;;0.98;;
37657;SDS011;23500;53.268;8.308;2023-03-05T03:29:17;1.63;;;1.00;;
37657;SDS011;23500;53.268;8.308;2023-03-05T03:31:43;1.90;;;0.90;;
37657;SDS011;23500;53.268;8.308;2023-03-05T03:34:10;1.85;;;1.00;;
37657;SDS011;23500;53.268;8.308;2023-03-05T03:36:37;2.00;;;1.20;;
37657;SDS011;23500;53.268;8.308;2023-03-05T03:39:03;1.25;;;1.10;;
37657;SDS011;23500;53.268;8.308;2023-03-05T03:41:30;2.28;;;1.08;;
37657;SDS011;23500;53.268;8.308;2023-03-05T03:43:56;1.30;;;1.10;;
37657;SDS011;23500;53.268;8.308;2023-03-05T03:46:22;1.00;;;0.80;;
37657;SDS011;23500;53.268;8.308;2023-03-05T03:48:49;2.15;;;1.13;;
37657;SDS011;23500;53.268;8.308;2023-03-05T03:51:15;2.83;;;1.15;;
37657;SDS011;23500;53.268;8.308;2023-03-05T03:53:41;2.45;;;1.30;;
37657;SDS011;23500;53.268;8.308;2023-03-05T03:56:07;1.30;;;0.98;;
37657;SDS011;23500;53.268;8.308;2023-03-05T03:58:32;1.30;;;1.10;;
37657;SDS011;23500;53.268;8.308;2023-03-05T04:00:58;1.77;;;0.95;;
37657;SDS011;23500;53.268;8.308;2023-03-05T04:03:24;2.45;;;1.00;;
37657;SDS011;23500;53.268;8.308;2023-03-05T04:05:50;1.88;;;1.10;;
37657;SDS011;23500;53.268;8.308;2023-03-05T04:08:15;1.17;;;0.88;;
37657;SDS011;23500;53.268;8.308;2023-03-05T04:10:41;2.45;;;1.10;;
37657;SDS011;23500;53.268;8.308;2023-03-05T04:13:07;2.00;;;0.98;;
37657;SDS011;23500;53.268;8.308;2023-03-05T04:15:33;1.23;;;1.10;;
37657;SDS011;23500;53.268;8.308;2023-03-05T04:17:58;1.00;;;0.90;;
37657;SDS011;23500;53.268;8.308;2023-03-05T04:20:24;1.92;;;0.80;;
37657;SDS011;23500;53.268;8.308;2023-03-05T04:22:50;1.60;;;0.90;;
37657;SDS011;23500;53.268;8.308;2023-03-05T04:25:16;2.03;;;1.10;;
37657;SDS011;23500;53.268;8.308;2023-03-05T04:27:41;2.17;;;0.88;;
37657;SDS011;23500;53.268;8.308;2023-03-05T04:30:07;0.77;;;0.70;;
37657;SDS011;23500;53.268;8.308;2023-03-05T04:32:35;2.00;;;1.02;;
37657;SDS011;23500;53.268;8.308;2023-03-05T04:35:00;1.67;;;1.00;;
37657;SDS011;23500;53.268;8.308;2023-03-05T04:37:26;2.17;;;0.93;;
37657;SDS011;23500;53.268;8.308;2023-03-05T04:39:52;1.20;;;0.80;;
37657;SDS011;23500;53.268;8.308;2023-03-05T04:42:18;1.27;;;1.00;;
37657;SDS011;23500;53.268;8.308;2023-03-05T04:44:45;2.28;;;1.15;;
37657;SDS011;23500;53.268;8.308;2023-03-05T04:47:15;0.88;;;0.73;;
37657;SDS011;23500;53.268;8.308;2023-03-05T04:49:41;2.08;;;0.80;;
37657;SDS011;23500;53.268;8.308;2023-03-05T04:52:07;1.30;;;0.90;;
37657;SDS011;23500;53.268;8.308;2023-03-05T04:54:35;1.55;;;0.90;;
37657;SDS011;23500;53.268;8.308;2023-03-05T04:57:01;1.38;;;0.93;;
37657;SDS011;23500;53.268;8.308;2023-03-05T04:59:27;0.90;;;0.90;;
37657;SDS011;23500;53.268;8.308;2023-03-05T05:01:53;1.48;;;1.00;;
37657;SDS011;23500;53.268;8.308;2023-03-05T05:04:19;2.40;;;1.00;;
37657;SDS011;23500;53.268;8.308;2023-03-05T05:06:44;0.82;;;0.80;;
37657;SDS011;23500;53.268;8.308;2023-03-05T05:09:10;1.00;;;0.80;;
37657;SDS011;23500;53.268;8.308;2023-03-05T05:11:36;0.90;;;0.77;;
37657;SDS011;23500;53.268;8.308;2023-03-05T05:14:01;1.40;;;0.80;;
37657;SDS011;23500;53.268;8.308;2023-03-05T05:16:28;1.35;;;1.05;;
37657;SDS011;23500;53.268;8.308;2023-03-05T05:18:54;1.50;;;0.90;;
37657;SDS011;23500;53.268;8.308;2023-03-05T05:21:19;1.20;;;0.88;;
37657;SDS011;23500;53.268;8.308;2023-03-05T05:23:45;0.93;;;0.80;;
37657;SDS011;23500;53.268;8.308;2023-03-05T05:26:13;1.45;;;0.90;;
37657;SDS011;23500;53.268;8.308;2023-03-05T05:28:40;1.17;;;1.00;;
37657;SDS011;23500;53.268;8.308;2023-03-05T05:31:11;1.23;;;0.90;;
37657;SDS011;23500;53.268;8.308;2023-03-05T05:33:37;1.50;;;0.75;;
37657;SDS011;23500;53.268;8.308;2023-03-05T05:36:04;0.70;;;0.70;;
37657;SDS011;23500;53.268;8.308;2023-03-05T05:38:32;1.65;;;1.10;;
37657;SDS011;23500;53.268;8.308;2023-03-05T05:41:06;1.40;;;0.85;;
37657;SDS011;23500;53.268;8.308;2023-03-05T05:43:34;1.15;;;1.00;;
37657;SDS011;23500;53.268;8.308;2023-03-05T05:46:01;1.10;;;0.85;;
37657;SDS011;23500;53.268;8.308;2023-03-05T05:48:28;0.95;;;0.88;;
37657;SDS011;23500;53.268;8.308;2023-03-05T05:50:55;2.03;;;1.00;;
37657;SDS011;23500;53.268;8.308;2023-03-05T05:53:22;0.95;;;0.85;;
37657;SDS011;23500;53.268;8.308;2023-03-05T05:55:48;1.27;;;0.95;;
37657;SDS011;23500;53.268;8.308;2023-03-05T05:58:14;1.38;;;0.80;;
37657;SDS011;23500;53.268;8.308;2023-03-05T06:00:40;0.95;;;0.75;;
37657;SDS011;23500;53.268;8.308;2023-03-05T06:03:05;1.88;;;0.80;;
37657;SDS011;23500;53.268;8.308;2023-03-05T06:05:32;1.08;;;0.90;;
37657;SDS011;23500;53.268;8.308;2023-03-05T06:07:58;1.55;;;0.90;;
37657;SDS011;23500;53.268;8.308;2023-03-05T06:10:23;0.85;;;0.77;;
37657;SDS011;23500;53.268;8.308;2023-03-05T06:12:49;1.35;;;1.13;;
37657;SDS011;23500;53.268;8.308;2023-03-05T06:15:15;0.90;;;0.70;;
37657;SDS011;23500;53.268;8.308;2023-03-05T06:17:41;1.48;;;0.80;;
37657;SDS011;23500;53.268;8.308;2023-03-05T06:20:07;1.08;;;0.80;;
37657;SDS011;23500;53.268;8.308;2023-03-05T06:22:37;1.02;;;0.82;;
37657;SDS011;23500;53.268;8.308;2023-03-05T06:25:03;1.30;;;0.90;;
37657;SDS011;23500;53.268;8.308;2023-03-05T06:27:33;1.55;;;0.70;;
37657;SDS011;23500;53.268;8.308;2023-03-05T06:30:00;1.88;;;0.90;;
37657;SDS011;23500;53.268;8.308;2023-03-05T06:32:25;0.80;;;0.70;;
37657;SDS011;23500;53.268;8.308;2023-03-05T06:34:51;1.40;;;0.85;;
37657;SDS011;23500;53.268;8.308;2023-03-05T06:37:17;2.08;;;0.93;;
37657;SDS011;23500;53.268;8.308;2023-03-05T06:39:43;1.13;;;0.77;;
37657;SDS011;23500;53.268;8.308;2023-03-05T06:42:09;0.95;;;0.80;;
37657;SDS011;23500;53.268;8.308;2023-03-05T06:44:38;1.05;;;0.75;;
37657;SDS011;23500;53.268;8.308;2023-03-05T06:47:07;0.80;;;0.80;;
37657;SDS011;23500;53.268;8.308;2023-03-05T06:49:34;1.73;;;0.93;;
37657;SDS011;23500;53.268;8.308;2023-03-05T06:52:01;1.85;;;0.85;;
37657;SDS011;23500;53.268;8.308;2023-03-05T06:54:27;2.10;;;0.77;;
37657;SDS011;23500;53.268;8.308;2023-03-05T06:56:52;2.78;;;0.80;;
37657;SDS011;23500;53.268;8.308;2023-03-05T06:59:18;1.67;;;0.80;;
37657;SDS011;23500;53.268;8.308;2023-03-05T07:01:45;0.98;;;0.60;;
37657;SDS011;23500;53.268;8.308;2023-03-05T07:04:11;0.80;;;0.80;;
37657;SDS011;23500;53.268;8.308;2023-03-05T07:06:38;0.70;;;0.70;;
37657;SDS011;23500;53.268;8.308;2023-03-05T07:09:06;0.95;;;0.60;;
37657;SDS011;23500;53.268;8.308;2023-03-05T07:11:34;1.00;;;0.70;;
37657;SDS011;23500;53.268;8.308;2023-03-05T07:14:00;0.73;;;0.60;;
37657;SDS011;23500;53.268;8.308;2023-03-05T07:16:29;1.30;;;0.80;;
37657;SDS011;23500;53.268;8.308;2023-03-05T07:18:57;0.80;;;0.70;;
37657;SDS011;23500;53.268;8.308;2023-03-05T07:21:25;1.35;;;0.70;;
37657;SDS011;23500;53.268;8.308;2023-03-05T07:23:53;0.77;;;0.70;;
37657;SDS011;23500;53.268;8.308;2023-03-05T07:26:19;1.45;;;0.73;;
37657;SDS011;23500;53.268;8.308;2023-03-05T07:28:46;1.42;;;0.60;;
37657;SDS011;23500;53.268;8.308;2023-03-05T07:31:13;1.23;;;0.70;;
37657;SDS011;23500;53.268;8.308;2023-03-05T07:33:41;0.95;;;0.73;;
37657;SDS011;23500;53.268;8.308;2023-03-05T07:36:07;1.15;;;0.80;;
37657;SDS011;23500;53.268;8.308;2023-03-05T07:38:34;3.08;;;0.77;;
37657;SDS011;23500;53.268;8.308;2023-03-05T07:41:06;1.55;;;0.88;;
37657;SDS011;23500;53.268;8.308;2023-03-05T07:43:37;0.88;;;0.65;;
37657;SDS011;23500;53.268;8.308;2023-03-05T07:46:03;0.70;;;0.70;;
37657;SDS011;23500;53.268;8.308;2023-03-05T07:48:30;1.10;;;0.70;;
37657;SDS011;23500;53.268;8.308;2023-03-05T07:51:03;0.60;;;0.60;;
37657;SDS011;23500;53.268;8.308;2023-03-05T07:53:30;1.15;;;0.80;;
37657;SDS011;23500;53.268;8.308;2023-03-05T07:55:55;0.70;;;0.52;;
37657;SDS011;23500;53.268;8.308;2023-03-05T07:58:21;1.42;;;0.80;;
37657;SDS011;23500;53.268;8.308;2023-03-05T08:00:47;1.52;;;0.73;;
37657;SDS011;23500;53.268;8.308;2023-03-05T08:03:13;1.30;;;0.63;;
37657;SDS011;23500;53.268;8.308;2023-03-05T08:05:39;0.75;;;0.60;;
37657;SDS011;23500;53.268;8.308;2023-03-05T08:08:05;1.30;;;0.80;;
37657;SDS011;23500;53.268;8.308;2023-03-05T08:10:32;1.90;;;0.68;;
37657;SDS011;23500;53.268;8.308;2023-03-05T08:12:58;0.82;;;0.70;;
37657;SDS011;23500;53.268;8.308;2023-03-05T08:15:23;1.10;;;0.70;;
37657;SDS011;23500;53.268;8.308;2023-03-05T08:17:49;3.00;;;0.70;;
37657;SDS011;23500;53.268;8.308;2023-03-05T08:20:15;1.42;;;0.70;;
37657;SDS011;23500;53.268;8.308;2023-03-05T08:22:40;1.63;;;0.60;;
37657;SDS011;23500;53.268;8.308;2023-03-05T08:25:06;0.82;;;0.68;;
37657;SDS011;23500;53.268;8.308;2023-03-05T08:27:32;1.20;;;0.60;;
37657;SDS011;23500;53.268;8.308;2023-03-05T08:30:01;0.93;;;0.63;;
37657;SDS011;23500;53.268;8.308;2023-03-05T08:32:27;0.50;;;0.45;;
37657;SDS011;23500;53.268;8.308;2023-03-05T08:34:56;1.35;;;0.70;;
37657;SDS011;23500;53.268;8.308;2023-03-05T08:37:26;0.70;;;0.60;;
37657;SDS011;23500;53.268;8.308;2023-03-05T08:39:52;1.20;;;0.80;;
37657;SDS011;23500;53.268;8.308;2023-03-05T08:42:20;0.60;;;0.60;;
37657;SDS011;23500;53.268;8.308;2023-03-05T08:44:46;2.10;;;0.95;;
37657;SDS011;23500;53.268;8.308;2023-03-05T08:47:12;0.65;;;0.65;;
37657;SDS011;23500;53.268;8.308;2023-03-05T08:49:37;1.23;;;0.82;;
37657;SDS011;23500;53.268;8.308;2023-03-05T08:52:03;1.63;;;0.70;;
37657;SDS011;23500;53.268;8.308;2023-03-05T08:54:29;1.38;;;0.68;;
37657;SDS011;23500;53.268;8.308;2023-03-05T08:56:54;0.82;;;0.70;;
37657;SDS011;23500;53.268;8.308;2023-03-05T08:59:20;0.60;;;0.52;;
37657;SDS011;23500;53.268;8.308;2023-03-05T09:01:46;0.85;;;0.70;;
37657;SDS011;23500;53.268;8.308;2023-03-05T09:04:11;1.42;;;0.60;;
37657;SDS011;23500;53.268;8.308;2023-03-05T09:06:37;0.45;;;0.40;;
37657;SDS011;23500;53.268;8.308;2023-03-05T09:09:05;0.70;;;0.60;;
37657;SDS011;23500;53.268;8.308;2023-03-05T09:11:31;0.60;;;0.50;;
37657;SDS011;23500;53.268;8.308;2023-03-05T09:14:03;0.75;;;0.73;;
37657;SDS011;23500;53.268;8.308;2023-03-05T09:16:29;0.70;;;0.65;;
37657;SDS011;23500;53.268;8.308;2023-03-05T09:18:55;0.90;;;0.70;;
37657;SDS011;23500;53.268;8.308;2023-03-05T09:21:22;1.95;;;0.60;;
37657;SDS011;23500;53.268;8.308;2023-03-05T09:23:47;1.48;;;0.80;;
37657;SDS011;23500;53.268;8.308;2023-03-05T09:26:14;2.03;;;0.70;;
37657;SDS011;23500;53.268;8.308;2023-03-05T09:28:43;1.00;;;0.57;;
37657;SDS011;23500;53.268;8.308;2023-03-05T09:31:09;2.63;;;0.60;;
37657;SDS011;23500;53.268;8.308;2023-03-05T09:33:35;1.50;;;0.60;;
37657;SDS011;23500;53.268;8.308;2023-03-05T09:36:03;2.15;;;0.70;;
37657;SDS011;23500;53.268;8.308;2023-03-05T09:38:30;2.17;;;0.73;;
37657;SDS011;23500;53.268;8.308;2023-03-05T09:41:03;1.90;;;0.70;;
37657;SDS011;23500;53.268;8.308;2023-03-05T09:46:34;0.63;;;0.50;;
37657;SDS011;23500;53.268;8.308;2023-03-05T09:49:15;1.38;;;0.60;;
37657;SDS011;23500;53.268;8.308;2023-03-05T09:51:42;2.58;;;0.85;;
37657;SDS011;23500;53.268;8.308;2023-03-05T09:56:49;1.48;;;0.60;;
37657;SDS011;23500;53.268;8.308;2023-03-05T10:01:52;2.25;;;0.57;;
37657;SDS011;23500;53.268;8.308;2023-03-05T10:04:23;2.03;;;0.70;;
37657;SDS011;23500;53.268;8.308;2023-03-05T10:15:54;2.10;;;0.70;;
37657;SDS011;23500;53.268;8.308;2023-03-05T10:18:04;1.45;;;0.63;;
37657;SDS011;23500;53.268;8.308;2023-03-05T10:21:27;0.70;;;0.50;;
37657;SDS011;23500;53.268;8.308;2023-03-05T10:40:55;2.53;;;0.88;;
37657;SDS011;23500;53.268;8.308;2023-03-05T10:43:38;2.65;;;0.60;;
37657;SDS011;23500;53.268;8.308;2023-03-05T10:46:20;2.15;;;0.65;;
37657;SDS011;23500;53.268;8.308;2023-03-05T10:48:52;2.50;;;0.52;;
37657;SDS011;23500;53.268;8.308;2023-03-05T10:54:23;3.53;;;1.60;;
37657;SDS011;23500;53.268;8.308;2023-03-05T10:57:12;1.63;;;0.80;;
37657;SDS011;23500;53.268;8.308;2023-03-05T10:59:46;3.05;;;0.68;;
37657;SDS011;23500;53.268;8.308;2023-03-05T11:02:17;2.20;;;0.70;;
37657;SDS011;23500;53.268;8.308;2023-03-05T11:04:44;1.23;;;0.60;;
37657;SDS011;23500;53.268;8.308;2023-03-05T11:10:00;2.85;;;1.02;;
37657;SDS011;23500;53.268;8.308;2023-03-05T11:12:40;1.60;;;0.73;;
37657;SDS011;23500;53.268;8.308;2023-03-05T11:17:38;2.13;;;0.70;;
37657;SDS011;23500;53.268;8.308;2023-03-05T11:23:02;1.02;;;0.60;;
37657;SDS011;23500;53.268;8.308;2023-03-05T11:28:17;0.75;;;0.47;;
37657;SDS011;23500;53.268;8.308;2023-03-05T11:30:53;2.38;;;0.60;;
37657;SDS011;23500;53.268;8.308;2023-03-05T11:33:20;1.23;;;0.70;;
37657;SDS011;23500;53.268;8.308;2023-03-05T11:35:48;1.95;;;0.63;;
37657;SDS011;23500;53.268;8.308;2023-03-05T11:38:21;1.58;;;0.40;;
37657;SDS011;23500;53.268;8.308;2023-03-05T11:40:50;1.55;;;0.77;;
37657;SDS011;23500;53.268;8.308;2023-03-05T11:43:19;2.50;;;0.63;;
37657;SDS011;23500;53.268;8.308;2023-03-05T11:45:54;3.50;;;0.50;;
37657;SDS011;23500;53.268;8.308;2023-03-05T11:48:36;1.30;;;0.50;;
37657;SDS011;23500;53.268;8.308;2023-03-05T11:51:18;2.17;;;0.70;;
37657;SDS011;23500;53.268;8.308;2023-03-05T11:53:48;1.77;;;0.65;;
37657;SDS011;23500;53.268;8.308;2023-03-05T11:56:22;0.80;;;0.52;;
37657;SDS011;23500;53.268;8.308;2023-03-05T11:59:02;2.10;;;0.50;;
37657;SDS011;23500;53.268;8.308;2023-03-05T12:01:44;1.90;;;0.50;;
37657;SDS011;23500;53.268;8.308;2023-03-05T12:04:13;1.83;;;0.50;;
37657;SDS011;23500;53.268;8.308;2023-03-05T12:06:44;1.05;;;0.50;;
37657;SDS011;23500;53.268;8.308;2023-03-05T12:11:53;1.23;;;0.52;;
37657;SDS011;23500;53.268;8.308;2023-03-05T12:14:38;1.02;;;0.43;;
37657;SDS011;23500;53.268;8.308;2023-03-05T12:17:15;1.33;;;0.60;;
37657;SDS011;23500;53.268;8.308;2023-03-05T12:20:05;0.68;;;0.40;;
37657;SDS011;23500;53.268;8.308;2023-03-05T12:22:46;1.90;;;0.50;;
37657;SDS011;23500;53.268;8.308;2023-03-05T12:25:31;1.05;;;0.77;;
37657;SDS011;23500;53.268;8.308;2023-03-05T12:27:59;1.92;;;0.60;;
37657;SDS011;23500;53.268;8.308;2023-03-05T12:33:04;2.17;;;0.60;;
37657;SDS011;23500;53.268;8.308;2023-03-05T12:35:33;0.98;;;0.60;;
37657;SDS011;23500;53.268;8.308;2023-03-05T12:38:04;1.00;;;0.50;;
37657;SDS011;23500;53.268;8.308;2023-03-05T12:40:40;1.58;;;0.60;;
37657;SDS011;23500;53.268;8.308;2023-03-05T12:45:52;2.83;;;0.60;;
37657;SDS011;23500;53.268;8.308;2023-03-05T12:48:57;1.27;;;0.65;;
37657;SDS011;23500;53.268;8.308;2023-03-05T12:51:33;1.02;;;0.52;;
37657;SDS011;23500;53.268;8.308;2023-03-05T12:54:37;2.28;;;0.50;;
37657;SDS011;23500;53.268;8.308;2023-03-05T12:57:20;0.98;;;0.50;;
37657;SDS011;23500;53.268;8.308;2023-03-05T12:59:52;0.45;;;0.40;;
37657;SDS011;23500;53.268;8.308;2023-03-05T13:02:41;1.15;;;0.60;;
37657;SDS011;23500;53.268;8.308;2023-03-05T13:05:16;0.80;;;0.40;;
37657;SDS011;23500;53.268;8.308;2023-03-05T13:07:46;1.35;;;0.50;;
37657;SDS011;23500;53.268;8.308;2023-03-05T13:10:22;1.83;;;0.50;;
37657;SDS011;23500;53.268;8.308;2023-03-05T13:12:50;0.63;;;0.50;;
37657;SDS011;23500;53.268;8.308;2023-03-05T13:15:18;1.33;;;0.57;;
37657;SDS011;23500;53.268;8.308;2023-03-05T13:20:40;0.88;;;0.50;;
37657;SDS011;23500;53.268;8.308;2023-03-05T13:25:43;1.50;;;0.40;;
37657;SDS011;23500;53.268;8.308;2023-03-05T13:28:11;0.68;;;0.43;;
37657;SDS011;23500;53.268;8.308;2023-03-05T13:30:42;1.30;;;0.60;;
37657;SDS011;23500;53.268;8.308;2023-03-05T13:33:15;1.27;;;0.40;;
37657;SDS011;23500;53.268;8.308;2023-03-05T13:35:43;0.50;;;0.40;;
37657;SDS011;23500;53.268;8.308;2023-03-05T13:38:21;1.58;;;0.40;;
37657;SDS011;23500;53.268;8.308;2023-03-05T13:40:59;1.35;;;0.50;;
37657;SDS011;23500;53.268;8.308;2023-03-05T13:43:27;0.52;;;0.45;;
37657;SDS011;23500;53.268;8.308;2023-03-05T13:45:53;1.25;;;0.50;;
37657;SDS011;23500;53.268;8.308;2023-03-05T13:48:24;1.10;;;0.40;;
37657;SDS011;23500;53.268;8.308;2023-03-05T13:50:55;0.85;;;0.40;;
37657;SDS011;23500;53.268;8.308;2023-03-05T13:53:28;1.02;;;0.50;;
37657;SDS011;23500;53.268;8.308;2023-03-05T13:56:05;0.90;;;0.57;;
37657;SDS011;23500;53.268;8.308;2023-03-05T13:58:39;1.40;;;0.38;;
37657;SDS011;23500;53.268;8.308;2023-03-05T14:01:17;0.77;;;0.40;;
37657;SDS011;23500;53.268;8.308;2023-03-05T14:06:39;0.73;;;0.45;;
37657;SDS011;23500;53.268;8.308;2023-03-05T14:09:15;1.17;;;0.50;;
37657;SDS011;23500;53.268;8.308;2023-03-05T14:12:45;0.75;;;0.50;;
37657;SDS011;23500;53.268;8.308;2023-03-05T14:14:42;0.80;;;0.50;;
37657;SDS011;23500;53.268;8.308;2023-03-05T14:22:32;0.80;;;0.40;;
37657;SDS011;23500;53.268;8.308;2023-03-05T14:25:03;1.67;;;0.60;;
37657;SDS011;23500;53.268;8.308;2023-03-05T14:27:32;0.80;;;0.50;;
37657;SDS011;23500;53.268;8.308;2023-03-05T14:29:59;0.75;;;0.40;;
37657;SDS011;23500;53.268;8.308;2023-03-05T14:34:57;1.33;;;0.50;;
37657;SDS011;23500;53.268;8.308;2023-03-05T14:37:28;0.75;;;0.40;;
37657;SDS011;23500;53.268;8.308;2023-03-05T14:40:27;0.63;;;0.50;;
37657;SDS011;23500;53.268;8.308;2023-03-05T14:43:01;0.90;;;0.50;;
37657;SDS011;23500;53.268;8.308;2023-03-05T14:45:29;0.80;;;0.35;;
37657;SDS011;23500;53.268;8.308;2023-03-05T14:47:57;0.85;;;0.20;;
37657;SDS011;23500;53.268;8.308;2023-03-05T14:50:26;0.77;;;0.45;;
37657;SDS011;23500;53.268;8.308;2023-03-05T14:52:55;0.75;;;0.50;;
37657;SDS011;23500;53.268;8.308;2023-03-05T14:55:24;0.75;;;0.40;;
37657;SDS011;23500;53.268;8.308;2023-03-05T14:57:52;0.50;;;0.40;;
37657;SDS011;23500;53.268;8.308;2023-03-05T15:00:27;1.42;;;0.40;;
37657;SDS011;23500;53.268;8.308;2023-03-05T15:02:53;0.52;;;0.40;;
37657;SDS011;23500;53.268;8.308;2023-03-05T15:05:22;0.77;;;0.40;;
37657;SDS011;23500;53.268;8.308;2023-03-05T15:07:48;1.08;;;0.50;;
37657;SDS011;23500;53.268;8.308;2023-03-05T15:10:16;0.60;;;0.40;;
37657;SDS011;23500;53.268;8.308;2023-03-05T15:12:43;0.88;;;0.30;;
37657;SDS011;23500;53.268;8.308;2023-03-05T15:15:10;1.15;;;0.43;;
37657;SDS011;23500;53.268;8.308;2023-03-05T15:17:40;1.50;;;0.47;;
37657;SDS011;23500;53.268;8.308;2023-03-05T15:20:10;1.88;;;0.50;;
37657;SDS011;23500;53.268;8.308;2023-03-05T15:22:39;0.55;;;0.45;;
37657;SDS011;23500;53.268;8.308;2023-03-05T15:25:05;0.45;;;0.40;;
37657;SDS011;23500;53.268;8.308;2023-03-05T15:27:31;1.10;;;0.50;;
37657;SDS011;23500;53.268;8.308;2023-03-05T15:29:56;1.23;;;0.47;;
37657;SDS011;23500;53.268;8.308;2023-03-05T15:32:25;1.38;;;0.50;;
37657;SDS011;23500;53.268;8.308;2023-03-05T15:34:52;0.77;;;0.40;;
37657;SDS011;23500;53.268;8.308;2023-03-05T15:37:19;0.90;;;0.60;;
37657;SDS011;23500;53.268;8.308;2023-03-05T15:39:44;0.90;;;0.50;;
37657;SDS011;23500;53.268;8.308;2023-03-05T15:42:10;0.90;;;0.43;;
37657;SDS011;23500;53.268;8.308;2023-03-05T15:44:36;0.50;;;0.50;;
37657;SDS011;23500;53.268;8.308;2023-03-05T15:47:03;0.52;;;0.52;;
37657;SDS011;23500;53.268;8.308;2023-03-05T15:49:29;1.25;;;0.50;;
37657;SDS011;23500;53.268;8.308;2023-03-05T15:51:54;0.73;;;0.45;;
37657;SDS011;23500;53.268;8.308;2023-03-05T15:54:21;0.80;;;0.57;;
37657;SDS011;23500;53.268;8.308;2023-03-05T15:56:47;1.52;;;0.70;;
37657;SDS011;23500;53.268;8.308;2023-03-05T15:59:12;2.25;;;0.82;;
37657;SDS011;23500;53.268;8.308;2023-03-05T16:01:38;2.83;;;1.10;;
37657;SDS011;23500;53.268;8.308;2023-03-05T16:04:08;1.38;;;0.85;;
37657;SDS011;23500;53.268;8.308;2023-03-05T16:06:33;4.38;;;1.63;;
37657;SDS011;23500;53.268;8.308;2023-03-05T16:09:01;2.38;;;2.00;;